< < Back
Terminal Aerodrome Forecast


Current Version              Previous Versions:   1  2  3  4  5  6  7  8  9  

Terminal Aerodrome Forecast

966
FTUS42 KCHS 090411 AAB
TAFCHS
TAF AMD
KCHS 090411Z 0904/0924 26010KT P6SM BKN060
     FM090700 27012G20KT P6SM FEW050
     FM091600 26020G28KT P6SM SCT035 BKN050=

Latest METAR

236
SAUS80 KWBC 091300 RRA
MTRCHS
METAR KCHS 091256Z 26008KT 10SM CLR 03/M02 A2984 RMK AO2 PRESRR SLP104
T00281022


USA.gov is the U.S. government's official web portal to all federal, state and local government web resources and services.